sensor_id;sensor_type;location;lat;lon;timestamp;pressure;altitude;pressure_sealevel;temperature;humidity
19795;BME280;10057;59.402;17.866;2023-02-28T07:34:40;102467.50;;;1.73;74.85
19795;BME280;10057;59.402;17.866;2023-02-28T07:37:07;102464.13;;;1.77;74.74
19795;BME280;10057;59.402;17.866;2023-02-28T07:39:34;102473.00;;;1.82;74.72
19795;BME280;10057;59.402;17.866;2023-02-28T07:42:04;102469.63;;;1.86;74.90
19795;BME280;10057;59.402;17.866;2023-02-28T07:44:31;102466.22;;;1.90;74.82
19795;BME280;10057;59.402;17.866;2023-02-28T07:46:58;102460.19;;;1.93;74.61
19795;BME280;10057;59.402;17.866;2023-02-28T07:49:24;102466.38;;;1.97;74.68
19795;BME280;10057;59.402;17.866;2023-02-28T07:51:51;102459.56;;;2.02;74.49
19795;BME280;10057;59.402;17.866;2023-02-28T07:54:18;102457.03;;;2.06;74.33
19795;BME280;10057;59.402;17.866;2023-02-28T07:56:44;102463.31;;;2.13;74.37
19795;BME280;10057;59.402;17.866;2023-02-28T07:59:11;102466.03;;;2.18;74.23
19795;BME280;10057;59.402;17.866;2023-02-28T08:01:38;102457.53;;;2.26;74.24
19795;BME280;10057;59.402;17.866;2023-02-28T08:04:05;102453.28;;;2.31;74.01
19795;BME280;10057;59.402;17.866;2023-02-28T08:06:31;102458.66;;;2.37;73.60
19795;BME280;10057;59.402;17.866;2023-02-28T08:08:58;102439.53;;;2.42;73.51
19795;BME280;10057;59.402;17.866;2023-02-28T08:11:25;102444.06;;;2.49;73.65
19795;BME280;10057;59.402;17.866;2023-02-28T08:13:51;102446.84;;;2.55;73.47
19795;BME280;10057;59.402;17.866;2023-02-28T08:16:18;102448.69;;;2.59;73.38
19795;BME280;10057;59.402;17.866;2023-02-28T08:18:50;102445.28;;;2.63;72.92
19795;BME280;10057;59.402;17.866;2023-02-28T08:21:18;102437.47;;;2.66;72.85
19795;BME280;10057;59.402;17.866;2023-02-28T08:23:49;102453.31;;;2.71;73.04
19795;BME280;10057;59.402;17.866;2023-02-28T08:26:17;102432.44;;;2.74;72.53
19795;BME280;10057;59.402;17.866;2023-02-28T08:28:45;102451.75;;;2.79;72.31
19795;BME280;10057;59.402;17.866;2023-02-28T08:31:14;102446.59;;;2.83;72.61
19795;BME280;10057;59.402;17.866;2023-02-28T08:33:42;102444.03;;;2.87;71.72
19795;BME280;10057;59.402;17.866;2023-02-28T08:36:11;102439.78;;;2.92;72.10
19795;BME280;10057;59.402;17.866;2023-02-28T08:38:38;102449.50;;;2.96;72.07
19795;BME280;10057;59.402;17.866;2023-02-28T08:41:07;102447.88;;;3.01;71.95
19795;BME280;10057;59.402;17.866;2023-02-28T08:43:35;102453.16;;;3.04;71.91
19795;BME280;10057;59.402;17.866;2023-02-28T08:46:03;102442.72;;;3.07;72.05
19795;BME280;10057;59.402;17.866;2023-02-28T08:48:32;102433.16;;;3.09;71.45
19795;BME280;10057;59.402;17.866;2023-02-28T08:51:05;102427.88;;;3.07;71.26
19795;BME280;10057;59.402;17.866;2023-02-28T08:53:37;102434.03;;;3.08;71.13
19795;BME280;10057;59.402;17.866;2023-02-28T08:56:06;102439.28;;;3.08;71.01
19795;BME280;10057;59.402;17.866;2023-02-28T08:58:34;102433.13;;;3.07;70.75
19795;BME280;10057;59.402;17.866;2023-02-28T09:01:08;102434.03;;;3.08;70.86
19795;BME280;10057;59.402;17.866;2023-02-28T09:03:35;102437.69;;;3.16;71.26
19795;BME280;10057;59.402;17.866;2023-02-28T09:06:02;102424.72;;;3.24;71.14
19795;BME280;10057;59.402;17.866;2023-02-28T09:08:29;102415.22;;;3.30;70.82
19795;BME280;10057;59.402;17.866;2023-02-28T09:10:57;102417.16;;;3.39;70.43
19795;BME280;10057;59.402;17.866;2023-02-28T09:13:26;102419.91;;;3.45;70.57
19795;BME280;10057;59.402;17.866;2023-02-28T09:15:54;102410.38;;;3.52;70.02
19795;BME280;10057;59.402;17.866;2023-02-28T09:18:21;102414.84;;;3.58;69.92
19795;BME280;10057;59.402;17.866;2023-02-28T09:20:47;102406.22;;;3.63;69.58
19795;BME280;10057;59.402;17.866;2023-02-28T09:23:14;102410.72;;;3.70;69.82
19795;BME280;10057;59.402;17.866;2023-02-28T09:25:49;102404.66;;;3.76;69.66
19795;BME280;10057;59.402;17.866;2023-02-28T09:28:17;102400.41;;;3.81;69.20
19795;BME280;10057;59.402;17.866;2023-02-28T09:30:46;102388.25;;;3.88;69.09
19795;BME280;10057;59.402;17.866;2023-02-28T09:33:13;102388.41;;;3.97;69.09
19795;BME280;10057;59.402;17.866;2023-02-28T09:35:41;102393.84;;;4.09;69.07
19795;BME280;10057;59.402;17.866;2023-02-28T09:38:09;102399.22;;;4.15;68.71
19795;BME280;10057;59.402;17.866;2023-02-28T09:40:43;102399.31;;;4.21;68.52
19795;BME280;10057;59.402;17.866;2023-02-28T09:43:14;102399.41;;;4.27;68.33
19795;BME280;10057;59.402;17.866;2023-02-28T09:45:44;102388.03;;;4.30;67.79
19795;BME280;10057;59.402;17.866;2023-02-28T09:48:19;102385.50;;;4.35;68.04
19795;BME280;10057;59.402;17.866;2023-02-28T09:51:03;102388.19;;;4.39;68.31
19795;BME280;10057;59.402;17.866;2023-02-28T09:53:33;102377.75;;;4.45;68.17
19795;BME280;10057;59.402;17.866;2023-02-28T09:56:04;102387.50;;;4.54;68.04
19795;BME280;10057;59.402;17.866;2023-02-28T10:07:03;102385.09;;;4.71;66.55
19795;BME280;10057;59.402;17.866;2023-02-28T10:09:49;102388.66;;;4.74;66.73
19795;BME280;10057;59.402;17.866;2023-02-28T10:12:19;102383.44;;;4.78;67.04
19795;BME280;10057;59.402;17.866;2023-02-28T10:14:47;102386.16;;;4.84;66.49
19795;BME280;10057;59.402;17.866;2023-02-28T10:17:27;102396.66;;;4.84;66.21
19795;BME280;10057;59.402;17.866;2023-02-28T10:20:05;102400.19;;;4.84;66.03
19795;BME280;10057;59.402;17.866;2023-02-28T10:22:52;102409.00;;;4.88;66.32
19795;BME280;10057;59.402;17.866;2023-02-28T10:25:22;102401.19;;;4.92;66.22
19795;BME280;10057;59.402;17.866;2023-02-28T10:27:53;102416.13;;;4.98;66.41
19795;BME280;10057;59.402;17.866;2023-02-28T10:30:20;102413.59;;;5.06;66.05
19795;BME280;10057;59.402;17.866;2023-02-28T10:32:51;102410.16;;;5.11;66.28
19795;BME280;10057;59.402;17.866;2023-02-28T10:35:21;102406.72;;;5.18;66.28
19795;BME280;10057;59.402;17.866;2023-02-28T10:37:50;102409.44;;;5.23;65.72
19795;BME280;10057;59.402;17.866;2023-02-28T10:56:16;102394.88;;;5.57;65.75
19795;BME280;10057;59.402;17.866;2023-02-28T10:59:01;102395.75;;;5.59;65.74
19795;BME280;10057;59.402;17.866;2023-02-28T11:03:59;102401.13;;;5.68;65.31
19795;BME280;10057;59.402;17.866;2023-02-28T11:06:31;102404.66;;;5.72;65.07
19795;BME280;10057;59.402;17.866;2023-02-28T11:09:06;102412.63;;;5.78;65.01
19795;BME280;10057;59.402;17.866;2023-02-28T11:11:45;102410.91;;;5.82;64.45
19795;BME280;10057;59.402;17.866;2023-02-28T11:14:24;102400.41;;;5.88;64.93
19795;BME280;10057;59.402;17.866;2023-02-28T11:16:52;102401.38;;;5.93;64.65
19795;BME280;10057;59.402;17.866;2023-02-28T11:19:29;102395.28;;;5.99;63.89
19795;BME280;10057;59.402;17.866;2023-02-28T11:21:59;102393.53;;;6.02;64.08
19795;BME280;10057;59.402;17.866;2023-02-28T11:24:42;102397.94;;;6.05;63.92
19795;BME280;10057;59.402;17.866;2023-02-28T11:27:42;102390.03;;;6.05;63.91
19795;BME280;10057;59.402;17.866;2023-02-28T11:30:27;102391.84;;;6.10;63.96
19795;BME280;10057;59.402;17.866;2023-02-28T11:32:55;102394.50;;;6.15;64.00
19795;BME280;10057;59.402;17.866;2023-02-28T11:35:32;102392.78;;;6.20;63.34
19795;BME280;10057;59.402;17.866;2023-02-28T11:38:02;102385.81;;;6.28;63.56
19795;BME280;10057;59.402;17.866;2023-02-28T11:40:59;102377.06;;;6.34;62.97
19795;BME280;10057;59.402;17.866;2023-02-28T11:46:22;102383.31;;;6.53;63.08
19795;BME280;10057;59.402;17.866;2023-02-28T11:49:01;102378.06;;;6.54;62.84
19795;BME280;10057;59.402;17.866;2023-02-28T11:54:14;102367.53;;;6.57;62.60
19795;BME280;10057;59.402;17.866;2023-02-28T11:56:52;102352.59;;;6.59;62.56
19795;BME280;10057;59.402;17.866;2023-02-28T12:07:50;102350.03;;;6.75;63.10
19795;BME280;10057;59.402;17.866;2023-02-28T12:10:21;102357.97;;;6.78;62.75
19795;BME280;10057;59.402;17.866;2023-02-28T12:13:05;102357.09;;;6.82;62.55
19795;BME280;10057;59.402;17.866;2023-02-28T12:16:11;102350.94;;;6.83;62.82
19795;BME280;10057;59.402;17.866;2023-02-28T12:26:39;102351.00;;;6.95;62.44
19795;BME280;10057;59.402;17.866;2023-02-28T12:29:14;102356.28;;;7.03;62.27
19795;BME280;10057;59.402;17.866;2023-02-28T12:31:55;102338.72;;;7.09;62.04
19795;BME280;10057;59.402;17.866;2023-02-28T12:34:28;102335.19;;;7.13;61.95
19795;BME280;10057;59.402;17.866;2023-02-28T12:37:02;102335.22;;;7.17;62.21
19795;BME280;10057;59.402;17.866;2023-02-28T12:39:36;102334.31;;;7.18;61.89
19795;BME280;10057;59.402;17.866;2023-02-28T12:42:24;102341.38;;;7.20;62.09
19795;BME280;10057;59.402;17.866;2023-02-28T12:45:04;102341.41;;;7.25;61.61
19795;BME280;10057;59.402;17.866;2023-02-28T12:47:38;102340.50;;;7.26;61.93
19795;BME280;10057;59.402;17.866;2023-02-28T12:50:09;102344.03;;;7.28;61.78
19795;BME280;10057;59.402;17.866;2023-02-28T12:52:58;102336.13;;;7.29;61.75
19795;BME280;10057;59.402;17.866;2023-02-28T12:55:29;102344.91;;;7.30;61.39
19795;BME280;10057;59.402;17.866;2023-02-28T12:58:07;102347.53;;;7.27;61.26
19795;BME280;10057;59.402;17.866;2023-02-28T13:00:46;102340.50;;;7.24;61.35
19795;BME280;10057;59.402;17.866;2023-02-28T13:03:37;102341.41;;;7.25;61.47
19795;BME280;10057;59.402;17.866;2023-02-28T13:06:33;102345.78;;;7.26;61.70
19795;BME280;10057;59.402;17.866;2023-02-28T13:09:12;102355.47;;;7.30;61.74
19795;BME280;10057;59.402;17.866;2023-02-28T13:11:50;102351.09;;;7.32;61.20
19795;BME280;10057;59.402;17.866;2023-02-28T13:14:28;102346.69;;;7.35;61.06
19795;BME280;10057;59.402;17.866;2023-02-28T13:16:58;102340.53;;;7.36;60.92
19795;BME280;10057;59.402;17.866;2023-02-28T13:19:28;102337.03;;;7.39;60.50
19795;BME280;10057;59.402;17.866;2023-02-28T13:21:57;102344.94;;;7.39;60.35
19795;BME280;10057;59.402;17.866;2023-02-28T13:29:31;102342.31;;;7.39;59.61
19795;BME280;10057;59.402;17.866;2023-02-28T13:34:34;102332.59;;;7.38;59.43
19795;BME280;10057;59.402;17.866;2023-02-28T13:40:22;102338.78;;;7.39;59.96
19795;BME280;10057;59.402;17.866;2023-02-28T13:42:52;102342.31;;;7.39;60.10
19795;BME280;10057;59.402;17.866;2023-02-28T13:45:29;102343.19;;;7.40;59.48
19795;BME280;10057;59.402;17.866;2023-02-28T13:48:03;102341.44;;;7.39;59.62
19795;BME280;10057;59.402;17.866;2023-02-28T13:50:33;102349.31;;;7.37;59.25
19795;BME280;10057;59.402;17.866;2023-02-28T13:55:52;102346.69;;;7.35;59.51
19795;BME280;10057;59.402;17.866;2023-02-28T13:58:35;102339.63;;;7.38;59.55
19795;BME280;10057;59.402;17.866;2023-02-28T14:09:22;102352.84;;;7.36;59.49
19795;BME280;10057;59.402;17.866;2023-02-28T14:11:50;102347.56;;;7.33;59.72
19795;BME280;10057;59.402;17.866;2023-02-28T14:17:06;102351.09;;;7.32;60.16
19795;BME280;10057;59.402;17.866;2023-02-28T14:19:37;102351.94;;;7.31;60.13
19795;BME280;10057;59.402;17.866;2023-02-28T14:22:42;102353.72;;;7.32;60.18
19795;BME280;10057;59.402;17.866;2023-02-28T14:31:06;102342.28;;;7.30;60.18
19795;BME280;10057;59.402;17.866;2023-02-28T14:36:28;102340.50;;;7.27;60.06
19795;BME280;10057;59.402;17.866;2023-02-28T14:39:01;102336.97;;;7.27;60.27
19795;BME280;10057;59.402;17.866;2023-02-28T14:41:36;102334.38;;;7.28;60.23
19795;BME280;10057;59.402;17.866;2023-02-28T14:46:44;102330.84;;;7.29;60.27
19795;BME280;10057;59.402;17.866;2023-02-28T14:49:17;102325.56;;;7.29;60.19
19795;BME280;10057;59.402;17.866;2023-02-28T14:51:44;102322.03;;;7.29;59.99
19795;BME280;10057;59.402;17.866;2023-02-28T14:54:15;102316.75;;;7.27;60.19
19795;BME280;10057;59.402;17.866;2023-02-28T14:56:43;102321.16;;;7.27;60.00
19795;BME280;10057;59.402;17.866;2023-02-28T14:59:39;102317.63;;;7.28;59.96
19795;BME280;10057;59.402;17.866;2023-02-28T15:02:22;102315.00;;;7.25;60.06
19795;BME280;10057;59.402;17.866;2023-02-28T15:04:57;102302.66;;;7.22;60.09
19795;BME280;10057;59.402;17.866;2023-02-28T15:07:26;102311.47;;;7.20;60.45
19795;BME280;10057;59.402;17.866;2023-02-28T15:10:19;102316.72;;;7.20;60.27
19795;BME280;10057;59.402;17.866;2023-02-28T15:13:04;102315.84;;;7.18;60.10
19795;BME280;10057;59.402;17.866;2023-02-28T15:16:03;102324.66;;;7.17;60.54
19795;BME280;10057;59.402;17.866;2023-02-28T15:18:44;102319.34;;;7.13;60.45
19795;BME280;10057;59.402;17.866;2023-02-28T15:21:16;102322.00;;;7.10;60.66
19795;BME280;10057;59.402;17.866;2023-02-28T15:23:48;102314.97;;;7.05;60.28
19795;BME280;10057;59.402;17.866;2023-02-28T15:26:19;102314.06;;;7.01;60.72
19795;BME280;10057;59.402;17.866;2023-02-28T15:28:51;102299.97;;;6.96;60.37
19795;BME280;10057;59.402;17.866;2023-02-28T15:31:27;102303.47;;;6.94;60.10
19795;BME280;10057;59.402;17.866;2023-02-28T15:34:04;102310.50;;;6.90;60.63
19795;BME280;10057;59.402;17.866;2023-02-28T15:36:35;102308.72;;;6.86;60.58
19795;BME280;10057;59.402;17.866;2023-02-28T15:39:19;102314.88;;;6.83;60.79
19795;BME280;10057;59.402;17.866;2023-02-28T15:41:46;102320.16;;;6.80;60.59
19795;BME280;10057;59.402;17.866;2023-02-28T15:44:23;102316.63;;;6.75;60.63
19795;BME280;10057;59.402;17.866;2023-02-28T15:47:01;102310.44;;;6.72;60.44
19795;BME280;10057;59.402;17.866;2023-02-28T15:49:36;102300.75;;;6.69;60.83
19795;BME280;10057;59.402;17.866;2023-02-28T15:52:15;102305.16;;;6.65;60.81
19795;BME280;10057;59.402;17.866;2023-02-28T15:54:43;102302.50;;;6.61;61.01
19795;BME280;10057;59.402;17.866;2023-02-28T15:57:24;102295.47;;;6.57;61.36
19795;BME280;10057;59.402;17.866;2023-02-28T15:59:58;102291.91;;;6.55;61.33
19795;BME280;10057;59.402;17.866;2023-02-28T16:02:37;102280.47;;;6.51;60.69
19795;BME280;10057;59.402;17.866;2023-02-28T16:07:41;102273.38;;;6.38;61.26
19795;BME280;10057;59.402;17.866;2023-02-28T16:10:12;102277.78;;;6.33;61.34
19795;BME280;10057;59.402;17.866;2023-02-28T16:12:41;102267.22;;;6.31;61.36
19795;BME280;10057;59.402;17.866;2023-02-28T16:15:18;102271.63;;;6.29;61.41
19795;BME280;10057;59.402;17.866;2023-02-28T16:17:45;102277.72;;;6.28;61.63
19795;BME280;10057;59.402;17.866;2023-02-28T16:20:27;102275.09;;;6.27;61.51
19795;BME280;10057;59.402;17.866;2023-02-28T16:22:54;102282.09;;;6.25;62.19
19795;BME280;10057;59.402;17.866;2023-02-28T16:25:26;102278.59;;;6.20;61.77
19795;BME280;10057;59.402;17.866;2023-02-28T16:27:55;102283.81;;;6.13;61.85
19795;BME280;10057;59.402;17.866;2023-02-28T16:30:26;102283.78;;;6.07;62.36
19795;BME280;10057;59.402;17.866;2023-02-28T16:32:55;102291.63;;;6.01;61.73
19795;BME280;10057;59.402;17.866;2023-02-28T16:35:22;102293.34;;;5.94;62.06
19795;BME280;10057;59.402;17.866;2023-02-28T16:37:53;102293.31;;;5.88;62.09
19795;BME280;10057;59.402;17.866;2023-02-28T16:40:23;102298.53;;;5.87;62.79
19795;BME280;10057;59.402;17.866;2023-02-28T16:42:53;102303.81;;;5.85;62.73
19795;BME280;10057;59.402;17.866;2023-02-28T16:45:24;102300.28;;;5.83;62.49
19795;BME280;10057;59.402;17.866;2023-02-28T16:47:52;102296.75;;;5.81;62.65
19795;BME280;10057;59.402;17.866;2023-02-28T16:50:20;102295.84;;;5.81;62.31
19795;BME280;10057;59.402;17.866;2023-02-28T16:52:48;102294.06;;;5.77;62.10
19795;BME280;10057;59.402;17.866;2023-02-28T16:55:16;102298.44;;;5.72;62.53
19795;BME280;10057;59.402;17.866;2023-02-28T16:57:43;102293.16;;;5.68;62.80
19795;BME280;10057;59.402;17.866;2023-02-28T17:00:13;102311.56;;;5.65;62.53
19795;BME280;10057;59.402;17.866;2023-02-28T17:02:40;102309.78;;;5.66;62.43
19795;BME280;10057;59.402;17.866;2023-02-28T17:05:10;102304.50;;;5.63;63.02
19795;BME280;10057;59.402;17.866;2023-02-28T17:07:38;102306.22;;;5.59;62.41
19795;BME280;10057;59.402;17.866;2023-02-28T17:10:18;102311.50;;;5.59;62.61
19795;BME280;10057;59.402;17.866;2023-02-28T17:12:45;102320.28;;;5.58;63.24
19795;BME280;10057;59.402;17.866;2023-02-28T17:15:14;102321.13;;;5.56;62.90
19795;BME280;10057;59.402;17.866;2023-02-28T17:17:41;102314.97;;;5.55;63.07
19795;BME280;10057;59.402;17.866;2023-02-28T17:20:21;102308.84;;;5.55;63.05
19795;BME280;10057;59.402;17.866;2023-02-28T17:22:54;102314.06;;;5.53;62.80
19795;BME280;10057;59.402;17.866;2023-02-28T17:25:22;102307.94;;;5.51;63.17
19795;BME280;10057;59.402;17.866;2023-02-28T17:27:49;102303.50;;;5.47;63.52
19795;BME280;10057;59.402;17.866;2023-02-28T17:30:24;102304.38;;;5.44;63.29
19795;BME280;10057;59.402;17.866;2023-02-28T17:32:51;102307.84;;;5.42;63.05
19795;BME280;10057;59.402;17.866;2023-02-28T17:35:17;102310.41;;;5.36;63.63
19795;BME280;10057;59.402;17.866;2023-02-28T17:37:44;102318.28;;;5.33;63.78
19795;BME280;10057;59.402;17.866;2023-02-28T17:40:19;102300.72;;;5.30;63.23
19795;BME280;10057;59.402;17.866;2023-02-28T17:42:46;102302.44;;;5.27;63.45
19795;BME280;10057;59.402;17.866;2023-02-28T17:45:14;102301.53;;;5.25;64.01
19795;BME280;10057;59.402;17.866;2023-02-28T17:47:43;102293.66;;;5.25;63.60
19795;BME280;10057;59.402;17.866;2023-02-28T17:50:15;102287.50;;;5.24;63.42
19795;BME280;10057;59.402;17.866;2023-02-28T17:52:42;102300.66;;;5.26;63.50
19795;BME280;10057;59.402;17.866;2023-02-28T17:55:10;102291.00;;;5.26;63.46
19795;BME280;10057;59.402;17.866;2023-02-28T17:57:37;102299.78;;;5.25;63.37
19795;BME280;10057;59.402;17.866;2023-02-28T18:00:05;102297.16;;;5.25;64.07
19795;BME280;10057;59.402;17.866;2023-02-28T18:02:34;102289.25;;;5.25;64.01
19795;BME280;10057;59.402;17.866;2023-02-28T18:05:01;102286.59;;;5.22;63.95
19795;BME280;10057;59.402;17.866;2023-02-28T18:07:30;102292.69;;;5.19;63.94
19795;BME280;10057;59.402;17.866;2023-02-28T18:09:57;102287.44;;;5.18;63.97
19795;BME280;10057;59.402;17.866;2023-02-28T18:12:24;102284.81;;;5.16;63.96
19795;BME280;10057;59.402;17.866;2023-02-28T18:14:50;102287.44;;;5.16;63.73
19795;BME280;10057;59.402;17.866;2023-02-28T18:17:17;102289.16;;;5.14;63.90
19795;BME280;10057;59.402;17.866;2023-02-28T18:19:44;102292.66;;;5.15;63.98
19795;BME280;10057;59.402;17.866;2023-02-28T18:22:10;102294.38;;;5.11;64.20
19795;BME280;10057;59.402;17.866;2023-02-28T18:24:37;102294.38;;;5.10;63.76
19795;BME280;10057;59.402;17.866;2023-02-28T18:27:04;102290.81;;;5.03;64.10
19795;BME280;10057;59.402;17.866;2023-02-28T18:29:32;102286.34;;;4.99;64.33
19795;BME280;10057;59.402;17.866;2023-02-28T18:31:59;102287.25;;;4.98;64.30
19795;BME280;10057;59.402;17.866;2023-02-28T18:34:27;102295.13;;;4.96;63.88
19795;BME280;10057;59.402;17.866;2023-02-28T18:36:56;102289.84;;;4.95;64.35
19795;BME280;10057;59.402;17.866;2023-02-28T18:39:23;102281.94;;;4.93;63.86
19795;BME280;10057;59.402;17.866;2023-02-28T18:41:50;102286.28;;;4.91;64.07
19795;BME280;10057;59.402;17.866;2023-02-28T18:44:17;102302.03;;;4.87;64.42
19795;BME280;10057;59.402;17.866;2023-02-28T18:46:50;102293.22;;;4.85;64.52
19795;BME280;10057;59.402;17.866;2023-02-28T18:49:17;102299.38;;;4.84;64.62
19795;BME280;10057;59.402;17.866;2023-02-28T18:51:44;102299.31;;;4.81;64.20
19795;BME280;10057;59.402;17.866;2023-02-28T18:54:13;102299.31;;;4.79;64.29
19795;BME280;10057;59.402;17.866;2023-02-28T18:56:40;102289.59;;;4.75;64.43
19795;BME280;10057;59.402;17.866;2023-02-28T18:59:07;102298.41;;;4.75;64.79
19795;BME280;10057;59.402;17.866;2023-02-28T19:01:34;102302.75;;;4.73;64.40
19795;BME280;10057;59.402;17.866;2023-02-28T19:04:02;102295.75;;;4.72;64.80
19795;BME280;10057;59.402;17.866;2023-02-28T19:06:30;102304.50;;;4.73;64.80
19795;BME280;10057;59.402;17.866;2023-02-28T19:09:00;102297.53;;;4.77;64.77
19795;BME280;10057;59.402;17.866;2023-02-28T19:11:27;102309.81;;;4.78;64.83
19795;BME280;10057;59.402;17.866;2023-02-28T19:13:55;102306.28;;;4.75;64.69
19795;BME280;10057;59.402;17.866;2023-02-28T19:16:21;102301.00;;;4.74;64.84
19795;BME280;10057;59.402;17.866;2023-02-28T19:18:49;102300.97;;;4.69;64.78
19795;BME280;10057;59.402;17.866;2023-02-28T19:21:17;102289.50;;;4.64;64.79
19795;BME280;10057;59.402;17.866;2023-02-28T19:23:44;102301.72;;;4.61;64.79
19795;BME280;10057;59.402;17.866;2023-02-28T19:26:17;102302.59;;;4.60;64.71
19795;BME280;10057;59.402;17.866;2023-02-28T19:28:44;102299.03;;;4.58;64.77
19795;BME280;10057;59.402;17.866;2023-02-28T19:31:16;102298.16;;;4.57;64.93
19795;BME280;10057;59.402;17.866;2023-02-28T19:33:44;102305.19;;;4.57;65.40
19795;BME280;10057;59.402;17.866;2023-02-28T19:36:12;102306.97;;;4.59;64.97
19795;BME280;10057;59.402;17.866;2023-02-28T19:38:39;102309.59;;;4.59;65.16
19795;BME280;10057;59.402;17.866;2023-02-28T19:41:08;102311.38;;;4.62;65.49
19795;BME280;10057;59.402;17.866;2023-02-28T19:43:35;102319.31;;;4.66;65.42
19795;BME280;10057;59.402;17.866;2023-02-28T19:46:02;102325.50;;;4.71;65.25
19795;BME280;10057;59.402;17.866;2023-02-28T19:48:29;102331.69;;;4.73;64.91
19795;BME280;10057;59.402;17.866;2023-02-28T19:51:00;102323.78;;;4.75;65.40
19795;BME280;10057;59.402;17.866;2023-02-28T19:53:29;102332.59;;;4.75;65.29
19795;BME280;10057;59.402;17.866;2023-02-28T19:55:56;102330.84;;;4.76;65.40
19795;BME280;10057;59.402;17.866;2023-02-28T19:58:26;102328.16;;;4.74;65.40
19795;BME280;10057;59.402;17.866;2023-02-28T20:00:53;102343.94;;;4.73;65.30
19795;BME280;10057;59.402;17.866;2023-02-28T20:03:20;102354.41;;;4.68;65.42
19795;BME280;10057;59.402;17.866;2023-02-28T20:06:00;102351.75;;;4.67;65.17
19795;BME280;10057;59.402;17.866;2023-02-28T20:08:28;102359.59;;;4.64;65.00
19795;BME280;10057;59.402;17.866;2023-02-28T20:11:00;102349.91;;;4.60;65.42
19795;BME280;10057;59.402;17.866;2023-02-28T20:13:27;102354.28;;;4.59;65.63
19795;BME280;10057;59.402;17.866;2023-02-28T20:15:57;102356.00;;;4.57;65.64
19795;BME280;10057;59.402;17.866;2023-02-28T20:18:24;102363.88;;;4.56;65.39
19795;BME280;10057;59.402;17.866;2023-02-28T20:20:51;102360.34;;;4.52;65.69
19795;BME280;10057;59.402;17.866;2023-02-28T20:23:18;102364.66;;;4.48;65.82
19795;BME280;10057;59.402;17.866;2023-02-28T20:25:44;102369.84;;;4.44;65.45
19795;BME280;10057;59.402;17.866;2023-02-28T20:28:11;102381.16;;;4.40;65.85
19795;BME280;10057;59.402;17.866;2023-02-28T20:30:38;102372.41;;;4.38;65.68
19795;BME280;10057;59.402;17.866;2023-02-28T20:33:07;102373.28;;;4.38;65.95
19795;BME280;10057;59.402;17.866;2023-02-28T20:35:34;102374.13;;;4.36;65.92
19795;BME280;10057;59.402;17.866;2023-02-28T20:38:00;102375.91;;;4.38;66.09
19795;BME280;10057;59.402;17.866;2023-02-28T20:40:27;102373.25;;;4.37;65.83
19795;BME280;10057;59.402;17.866;2023-02-28T20:42:54;102379.38;;;4.36;65.52
19795;BME280;10057;59.402;17.866;2023-02-28T20:45:20;102378.41;;;4.31;65.55
19795;BME280;10057;59.402;17.866;2023-02-28T20:47:47;102369.63;;;4.28;65.79
19795;BME280;10057;59.402;17.866;2023-02-28T20:50:14;102373.97;;;4.26;65.85
19795;BME280;10057;59.402;17.866;2023-02-28T20:52:42;102384.47;;;4.25;65.98
19795;BME280;10057;59.402;17.866;2023-02-28T20:55:10;102382.66;;;4.22;65.81
19795;BME280;10057;59.402;17.866;2023-02-28T20:57:40;102386.19;;;4.23;65.93
19795;BME280;10057;59.402;17.866;2023-02-28T21:00:07;102392.34;;;4.25;66.01
19795;BME280;10057;59.402;17.866;2023-02-28T21:02:41;102393.28;;;4.28;65.82
19795;BME280;10057;59.402;17.866;2023-02-28T21:05:08;102394.16;;;4.29;65.85
19795;BME280;10057;59.402;17.866;2023-02-28T21:07:35;102394.16;;;4.27;65.99
19795;BME280;10057;59.402;17.866;2023-02-28T21:10:02;102402.00;;;4.26;65.49
19795;BME280;10057;59.402;17.866;2023-02-28T21:12:29;102403.72;;;4.24;65.66
19795;BME280;10057;59.402;17.866;2023-02-28T21:14:55;102409.81;;;4.21;65.81
19795;BME280;10057;59.402;17.866;2023-02-28T21:17:22;102409.75;;;4.18;65.86
19795;BME280;10057;59.402;17.866;2023-02-28T21:19:49;102408.88;;;4.18;66.01
19795;BME280;10057;59.402;17.866;2023-02-28T21:22:15;102414.97;;;4.15;66.00
19795;BME280;10057;59.402;17.866;2023-02-28T21:24:42;102414.97;;;4.15;66.26
19795;BME280;10057;59.402;17.866;2023-02-28T21:27:09;102412.28;;;4.12;66.02
19795;BME280;10057;59.402;17.866;2023-02-28T21:29:36;102424.50;;;4.10;66.15
19795;BME280;10057;59.402;17.866;2023-02-28T21:32:02;102427.09;;;4.07;65.92
19795;BME280;10057;59.402;17.866;2023-02-28T21:34:29;102419.19;;;4.06;65.85
19795;BME280;10057;59.402;17.866;2023-02-28T21:36:56;102422.69;;;4.04;66.00
19795;BME280;10057;59.402;17.866;2023-02-28T21:39:25;102423.50;;;4.02;66.23
19795;BME280;10057;59.402;17.866;2023-02-28T21:41:55;102431.34;;;3.99;66.13
19795;BME280;10057;59.402;17.866;2023-02-28T21:44:30;102440.91;;;3.95;65.82
19795;BME280;10057;59.402;17.866;2023-02-28T21:46:56;102449.59;;;3.93;66.21
19795;BME280;10057;59.402;17.866;2023-02-28T21:49:26;102437.31;;;3.90;65.98
19795;BME280;10057;59.402;17.866;2023-02-28T21:51:53;102449.59;;;3.90;66.03
19795;BME280;10057;59.402;17.866;2023-02-28T21:54:20;102450.41;;;3.89;66.10
19795;BME280;10057;59.402;17.866;2023-02-28T21:56:47;102456.53;;;3.88;66.02
19795;BME280;10057;59.402;17.866;2023-02-28T21:59:16;102459.13;;;3.86;66.21
19795;BME280;10057;59.402;17.866;2023-02-28T22:01:44;102459.97;;;3.85;66.16
19795;BME280;10057;59.402;17.866;2023-02-28T22:04:15;102459.97;;;3.85;66.20
19795;BME280;10057;59.402;17.866;2023-02-28T22:06:51;102461.72;;;3.83;66.26
19795;BME280;10057;59.402;17.866;2023-02-28T22:09:19;102460.78;;;3.81;66.07
19795;BME280;10057;59.402;17.866;2023-02-28T22:11:46;102469.53;;;3.80;66.26